sensor_id;sensor_type;location;lat;lon;timestamp;P1;durP1;ratioP1;P2;durP2;ratioP2
58647;SDS011;45992;45.920;20.074;2022-07-29T00:00:03;9.23;;;5.50;;
58647;SDS011;45992;45.920;20.074;2022-07-29T00:02:29;8.95;;;4.75;;
58647;SDS011;45992;45.920;20.074;2022-07-29T00:04:57;13.30;;;5.20;;
58647;SDS011;45992;45.920;20.074;2022-07-29T00:07:23;11.18;;;5.20;;
58647;SDS011;45992;45.920;20.074;2022-07-29T00:09:49;9.93;;;5.10;;
58647;SDS011;45992;45.920;20.074;2022-07-29T00:12:15;10.15;;;4.97;;
58647;SDS011;45992;45.920;20.074;2022-07-29T00:14:42;10.82;;;5.18;;
58647;SDS011;45992;45.920;20.074;2022-07-29T00:17:08;9.55;;;5.40;;
58647;SDS011;45992;45.920;20.074;2022-07-29T00:19:34;8.50;;;5.25;;
58647;SDS011;45992;45.920;20.074;2022-07-29T00:22:00;10.23;;;5.28;;
58647;SDS011;45992;45.920;20.074;2022-07-29T00:24:26;12.07;;;5.13;;
58647;SDS011;45992;45.920;20.074;2022-07-29T00:29:18;11.50;;;5.10;;
58647;SDS011;45992;45.920;20.074;2022-07-29T00:31:45;9.15;;;5.18;;
58647;SDS011;45992;45.920;20.074;2022-07-29T00:34:11;10.52;;;5.85;;
58647;SDS011;45992;45.920;20.074;2022-07-29T00:36:56;10.20;;;5.05;;
58647;SDS011;45992;45.920;20.074;2022-07-29T00:39:22;7.57;;;4.72;;
58647;SDS011;45992;45.920;20.074;2022-07-29T00:41:49;17.88;;;6.53;;
58647;SDS011;45992;45.920;20.074;2022-07-29T00:44:15;17.58;;;5.97;;
58647;SDS011;45992;45.920;20.074;2022-07-29T00:46:41;11.80;;;5.10;;
58647;SDS011;45992;45.920;20.074;2022-07-29T00:49:07;12.50;;;5.88;;
58647;SDS011;45992;45.920;20.074;2022-07-29T00:53:59;11.15;;;5.68;;
58647;SDS011;45992;45.920;20.074;2022-07-29T00:56:25;11.82;;;5.22;;
58647;SDS011;45992;45.920;20.074;2022-07-29T00:58:51;12.32;;;5.15;;
58647;SDS011;45992;45.920;20.074;2022-07-29T01:01:18;7.88;;;4.50;;
58647;SDS011;45992;45.920;20.074;2022-07-29T01:03:44;9.68;;;4.88;;
58647;SDS011;45992;45.920;20.074;2022-07-29T01:06:10;9.60;;;5.00;;
58647;SDS011;45992;45.920;20.074;2022-07-29T01:08:36;11.40;;;5.03;;
58647;SDS011;45992;45.920;20.074;2022-07-29T01:11:02;12.00;;;4.80;;
58647;SDS011;45992;45.920;20.074;2022-07-29T01:15:56;8.90;;;4.82;;
58647;SDS011;45992;45.920;20.074;2022-07-29T01:18:34;8.77;;;5.03;;
58647;SDS011;45992;45.920;20.074;2022-07-29T01:24:05;8.95;;;5.22;;
58647;SDS011;45992;45.920;20.074;2022-07-29T01:26:42;13.80;;;5.82;;
58647;SDS011;45992;45.920;20.074;2022-07-29T01:34:10;10.73;;;4.93;;
58647;SDS011;45992;45.920;20.074;2022-07-29T01:36:40;9.80;;;5.10;;
58647;SDS011;45992;45.920;20.074;2022-07-29T01:39:14;8.80;;;4.60;;
58647;SDS011;45992;45.920;20.074;2022-07-29T01:44:31;11.07;;;5.05;;
58647;SDS011;45992;45.920;20.074;2022-07-29T01:46:58;13.85;;;5.25;;
58647;SDS011;45992;45.920;20.074;2022-07-29T01:49:27;9.63;;;4.85;;
58647;SDS011;45992;45.920;20.074;2022-07-29T01:52:27;10.98;;;4.70;;
58647;SDS011;45992;45.920;20.074;2022-07-29T01:54:51;10.77;;;5.38;;
58647;SDS011;45992;45.920;20.074;2022-07-29T01:57:18;10.18;;;5.63;;
58647;SDS011;45992;45.920;20.074;2022-07-29T01:59:47;8.48;;;5.47;;
58647;SDS011;45992;45.920;20.074;2022-07-29T02:02:15;9.27;;;6.57;;
58647;SDS011;45992;45.920;20.074;2022-07-29T02:04:41;12.02;;;5.70;;
58647;SDS011;45992;45.920;20.074;2022-07-29T02:07:09;16.95;;;5.85;;
58647;SDS011;45992;45.920;20.074;2022-07-29T02:09:36;10.35;;;6.50;;
58647;SDS011;45992;45.920;20.074;2022-07-29T02:12:03;8.52;;;6.32;;
58647;SDS011;45992;45.920;20.074;2022-07-29T02:14:31;10.27;;;6.50;;
58647;SDS011;45992;45.920;20.074;2022-07-29T02:16:58;12.68;;;6.55;;
58647;SDS011;45992;45.920;20.074;2022-07-29T02:19:26;12.35;;;6.55;;
58647;SDS011;45992;45.920;20.074;2022-07-29T02:21:53;10.82;;;7.22;;
58647;SDS011;45992;45.920;20.074;2022-07-29T02:24:20;12.50;;;7.82;;
58647;SDS011;45992;45.920;20.074;2022-07-29T02:26:48;10.75;;;7.78;;
58647;SDS011;45992;45.920;20.074;2022-07-29T02:29:15;11.13;;;7.55;;
58647;SDS011;45992;45.920;20.074;2022-07-29T02:31:42;12.85;;;7.82;;
58647;SDS011;45992;45.920;20.074;2022-07-29T02:34:09;10.90;;;7.00;;
58647;SDS011;45992;45.920;20.074;2022-07-29T02:39:02;11.60;;;7.93;;
58647;SDS011;45992;45.920;20.074;2022-07-29T02:43:58;11.95;;;8.60;;
58647;SDS011;45992;45.920;20.074;2022-07-29T02:46:28;10.70;;;8.57;;
58647;SDS011;45992;45.920;20.074;2022-07-29T02:51:53;11.48;;;8.05;;
58647;SDS011;45992;45.920;20.074;2022-07-29T02:54:22;11.88;;;9.02;;
58647;SDS011;45992;45.920;20.074;2022-07-29T02:56:49;11.38;;;9.05;;
58647;SDS011;45992;45.920;20.074;2022-07-29T02:59:18;13.20;;;9.00;;
58647;SDS011;45992;45.920;20.074;2022-07-29T03:01:47;12.20;;;8.27;;
58647;SDS011;45992;45.920;20.074;2022-07-29T03:06:40;11.38;;;8.48;;
58647;SDS011;45992;45.920;20.074;2022-07-29T03:09:07;12.18;;;8.45;;
58647;SDS011;45992;45.920;20.074;2022-07-29T03:11:33;13.77;;;9.07;;
58647;SDS011;45992;45.920;20.074;2022-07-29T03:14:00;15.88;;;9.43;;
58647;SDS011;45992;45.920;20.074;2022-07-29T03:16:26;16.35;;;10.80;;
58647;SDS011;45992;45.920;20.074;2022-07-29T03:21:19;12.10;;;9.40;;
58647;SDS011;45992;45.920;20.074;2022-07-29T03:23:45;11.23;;;8.18;;
58647;SDS011;45992;45.920;20.074;2022-07-29T03:26:11;14.75;;;9.23;;
58647;SDS011;45992;45.920;20.074;2022-07-29T03:28:37;11.85;;;8.40;;
58647;SDS011;45992;45.920;20.074;2022-07-29T03:31:03;12.50;;;8.27;;
58647;SDS011;45992;45.920;20.074;2022-07-29T03:33:29;16.23;;;10.25;;
58647;SDS011;45992;45.920;20.074;2022-07-29T03:35:56;15.90;;;10.32;;
58647;SDS011;45992;45.920;20.074;2022-07-29T03:38:23;16.70;;;11.48;;
58647;SDS011;45992;45.920;20.074;2022-07-29T03:40:54;19.17;;;10.88;;
58647;SDS011;45992;45.920;20.074;2022-07-29T03:43:21;18.35;;;12.07;;
58647;SDS011;45992;45.920;20.074;2022-07-29T03:45:50;15.52;;;12.30;;
58647;SDS011;45992;45.920;20.074;2022-07-29T03:48:17;13.20;;;11.90;;
58647;SDS011;45992;45.920;20.074;2022-07-29T03:50:45;15.73;;;12.05;;
58647;SDS011;45992;45.920;20.074;2022-07-29T03:53:11;17.10;;;11.40;;
58647;SDS011;45992;45.920;20.074;2022-07-29T03:55:41;16.17;;;12.20;;
58647;SDS011;45992;45.920;20.074;2022-07-29T03:58:07;15.20;;;12.32;;
58647;SDS011;45992;45.920;20.074;2022-07-29T04:00:34;13.52;;;10.93;;
58647;SDS011;45992;45.920;20.074;2022-07-29T04:03:00;15.38;;;10.60;;
58647;SDS011;45992;45.920;20.074;2022-07-29T04:05:26;12.73;;;10.55;;
58647;SDS011;45992;45.920;20.074;2022-07-29T04:07:52;15.30;;;10.70;;
58647;SDS011;45992;45.920;20.074;2022-07-29T04:10:19;15.48;;;10.55;;
58647;SDS011;45992;45.920;20.074;2022-07-29T04:12:45;13.43;;;11.35;;
58647;SDS011;45992;45.920;20.074;2022-07-29T04:15:11;13.68;;;10.45;;
58647;SDS011;45992;45.920;20.074;2022-07-29T04:17:37;14.30;;;11.05;;
58647;SDS011;45992;45.920;20.074;2022-07-29T04:20:03;14.30;;;12.45;;
58647;SDS011;45992;45.920;20.074;2022-07-29T04:22:29;16.13;;;14.48;;
58647;SDS011;45992;45.920;20.074;2022-07-29T04:24:56;16.70;;;13.82;;
58647;SDS011;45992;45.920;20.074;2022-07-29T04:27:22;16.20;;;14.10;;
58647;SDS011;45992;45.920;20.074;2022-07-29T04:29:48;17.65;;;13.18;;
58647;SDS011;45992;45.920;20.074;2022-07-29T04:32:14;15.55;;;14.00;;
58647;SDS011;45992;45.920;20.074;2022-07-29T04:34:40;13.88;;;12.20;;
58647;SDS011;45992;45.920;20.074;2022-07-29T04:37:06;12.45;;;11.18;;
58647;SDS011;45992;45.920;20.074;2022-07-29T04:39:32;16.75;;;12.68;;
58647;SDS011;45992;45.920;20.074;2022-07-29T04:44:23;15.38;;;11.50;;
58647;SDS011;45992;45.920;20.074;2022-07-29T04:46:49;16.00;;;13.02;;
58647;SDS011;45992;45.920;20.074;2022-07-29T04:51:41;14.43;;;12.55;;
58647;SDS011;45992;45.920;20.074;2022-07-29T04:54:07;13.82;;;12.52;;
58647;SDS011;45992;45.920;20.074;2022-07-29T04:58:59;14.45;;;13.05;;
58647;SDS011;45992;45.920;20.074;2022-07-29T05:01:25;13.52;;;12.13;;
58647;SDS011;45992;45.920;20.074;2022-07-29T05:03:51;14.02;;;12.73;;
58647;SDS011;45992;45.920;20.074;2022-07-29T05:06:17;12.25;;;10.02;;
58647;SDS011;45992;45.920;20.074;2022-07-29T05:08:43;13.18;;;10.85;;
58647;SDS011;45992;45.920;20.074;2022-07-29T05:11:09;12.82;;;9.35;;
58647;SDS011;45992;45.920;20.074;2022-07-29T05:13:35;12.40;;;10.65;;
58647;SDS011;45992;45.920;20.074;2022-07-29T05:16:01;13.10;;;11.80;;
58647;SDS011;45992;45.920;20.074;2022-07-29T05:18:27;13.80;;;11.75;;
58647;SDS011;45992;45.920;20.074;2022-07-29T05:20:54;13.18;;;11.88;;
58647;SDS011;45992;45.920;20.074;2022-07-29T05:23:20;12.77;;;11.68;;
58647;SDS011;45992;45.920;20.074;2022-07-29T05:25:46;10.77;;;9.57;;
58647;SDS011;45992;45.920;20.074;2022-07-29T05:28:12;14.50;;;13.10;;
58647;SDS011;45992;45.920;20.074;2022-07-29T05:30:38;14.20;;;12.52;;
58647;SDS011;45992;45.920;20.074;2022-07-29T05:33:04;13.68;;;10.77;;
58647;SDS011;45992;45.920;20.074;2022-07-29T05:35:30;11.75;;;10.55;;
58647;SDS011;45992;45.920;20.074;2022-07-29T05:37:56;12.88;;;10.82;;
58647;SDS011;45992;45.920;20.074;2022-07-29T05:40:22;12.48;;;10.68;;
58647;SDS011;45992;45.920;20.074;2022-07-29T05:42:48;11.40;;;10.30;;
58647;SDS011;45992;45.920;20.074;2022-07-29T05:45:14;10.98;;;9.80;;
58647;SDS011;45992;45.920;20.074;2022-07-29T05:47:40;11.65;;;8.73;;
58647;SDS011;45992;45.920;20.074;2022-07-29T05:50:07;10.88;;;9.27;;
58647;SDS011;45992;45.920;20.074;2022-07-29T05:52:33;12.98;;;8.80;;
58647;SDS011;45992;45.920;20.074;2022-07-29T05:54:59;14.27;;;9.55;;
58647;SDS011;45992;45.920;20.074;2022-07-29T05:57:29;12.73;;;11.43;;
58647;SDS011;45992;45.920;20.074;2022-07-29T05:59:55;11.63;;;10.05;;
58647;SDS011;45992;45.920;20.074;2022-07-29T06:02:21;13.32;;;9.57;;
58647;SDS011;45992;45.920;20.074;2022-07-29T06:04:48;12.27;;;10.07;;
58647;SDS011;45992;45.920;20.074;2022-07-29T06:07:14;13.88;;;10.68;;
58647;SDS011;45992;45.920;20.074;2022-07-29T06:09:41;11.05;;;9.48;;
58647;SDS011;45992;45.920;20.074;2022-07-29T06:12:07;11.23;;;9.90;;
58647;SDS011;45992;45.920;20.074;2022-07-29T06:14:33;10.95;;;9.85;;
58647;SDS011;45992;45.920;20.074;2022-07-29T06:17:00;15.52;;;9.88;;
58647;SDS011;45992;45.920;20.074;2022-07-29T06:19:26;10.77;;;9.60;;
58647;SDS011;45992;45.920;20.074;2022-07-29T06:21:52;11.30;;;8.95;;
58647;SDS011;45992;45.920;20.074;2022-07-29T06:24:18;10.93;;;9.15;;
58647;SDS011;45992;45.920;20.074;2022-07-29T06:26:44;12.13;;;10.23;;
58647;SDS011;45992;45.920;20.074;2022-07-29T06:29:10;10.00;;;8.90;;
58647;SDS011;45992;45.920;20.074;2022-07-29T06:31:36;11.52;;;8.45;;
58647;SDS011;45992;45.920;20.074;2022-07-29T06:34:02;12.02;;;8.57;;
58647;SDS011;45992;45.920;20.074;2022-07-29T06:36:29;8.50;;;7.55;;
58647;SDS011;45992;45.920;20.074;2022-07-29T06:38:55;8.90;;;7.28;;
58647;SDS011;45992;45.920;20.074;2022-07-29T06:41:21;9.27;;;7.90;;
58647;SDS011;45992;45.920;20.074;2022-07-29T06:43:48;9.63;;;7.90;;
58647;SDS011;45992;45.920;20.074;2022-07-29T06:46:16;9.63;;;8.63;;
58647;SDS011;45992;45.920;20.074;2022-07-29T06:48:42;9.25;;;7.45;;
58647;SDS011;45992;45.920;20.074;2022-07-29T06:51:09;10.40;;;7.38;;
58647;SDS011;45992;45.920;20.074;2022-07-29T06:53:39;11.27;;;8.15;;
58647;SDS011;45992;45.920;20.074;2022-07-29T06:56:06;10.00;;;8.10;;
58647;SDS011;45992;45.920;20.074;2022-07-29T06:58:34;11.52;;;8.75;;
58647;SDS011;45992;45.920;20.074;2022-07-29T07:01:03;11.40;;;9.57;;
58647;SDS011;45992;45.920;20.074;2022-07-29T07:03:30;13.05;;;8.60;;
58647;SDS011;45992;45.920;20.074;2022-07-29T07:05:56;13.07;;;8.05;;
58647;SDS011;45992;45.920;20.074;2022-07-29T07:08:22;8.77;;;7.03;;
58647;SDS011;45992;45.920;20.074;2022-07-29T07:10:49;9.80;;;6.72;;
58647;SDS011;45992;45.920;20.074;2022-07-29T07:13:15;10.77;;;6.65;;
58647;SDS011;45992;45.920;20.074;2022-07-29T07:15:42;10.15;;;7.03;;
58647;SDS011;45992;45.920;20.074;2022-07-29T07:18:08;8.60;;;7.28;;
58647;SDS011;45992;45.920;20.074;2022-07-29T07:20:35;10.85;;;8.70;;
58647;SDS011;45992;45.920;20.074;2022-07-29T07:23:01;9.10;;;6.72;;
58647;SDS011;45992;45.920;20.074;2022-07-29T07:25:27;9.90;;;6.72;;
58647;SDS011;45992;45.920;20.074;2022-07-29T07:27:53;10.23;;;6.63;;
58647;SDS011;45992;45.920;20.074;2022-07-29T07:30:19;11.70;;;7.20;;
58647;SDS011;45992;45.920;20.074;2022-07-29T07:32:46;11.02;;;7.25;;
58647;SDS011;45992;45.920;20.074;2022-07-29T07:35:12;8.95;;;7.28;;
58647;SDS011;45992;45.920;20.074;2022-07-29T07:37:39;9.40;;;7.65;;
58647;SDS011;45992;45.920;20.074;2022-07-29T07:40:09;10.90;;;7.25;;
58647;SDS011;45992;45.920;20.074;2022-07-29T07:42:39;12.23;;;7.13;;
58647;SDS011;45992;45.920;20.074;2022-07-29T07:45:05;12.00;;;7.07;;
58647;SDS011;45992;45.920;20.074;2022-07-29T07:47:34;10.38;;;7.10;;
58647;SDS011;45992;45.920;20.074;2022-07-29T07:50:00;9.73;;;7.55;;
58647;SDS011;45992;45.920;20.074;2022-07-29T07:52:26;8.25;;;6.63;;
58647;SDS011;45992;45.920;20.074;2022-07-29T07:54:52;8.60;;;6.57;;
58647;SDS011;45992;45.920;20.074;2022-07-29T07:57:18;7.65;;;5.78;;
58647;SDS011;45992;45.920;20.074;2022-07-29T07:59:44;10.93;;;6.65;;
58647;SDS011;45992;45.920;20.074;2022-07-29T08:02:10;10.75;;;6.07;;
58647;SDS011;45992;45.920;20.074;2022-07-29T08:04:36;8.95;;;5.72;;
58647;SDS011;45992;45.920;20.074;2022-07-29T08:07:05;11.90;;;5.93;;
58647;SDS011;45992;45.920;20.074;2022-07-29T08:09:31;8.10;;;5.60;;
58647;SDS011;45992;45.920;20.074;2022-07-29T08:11:57;9.30;;;5.32;;
58647;SDS011;45992;45.920;20.074;2022-07-29T08:14:24;8.50;;;5.50;;
58647;SDS011;45992;45.920;20.074;2022-07-29T08:16:50;7.30;;;5.22;;
58647;SDS011;45992;45.920;20.074;2022-07-29T08:19:16;8.18;;;5.40;;
58647;SDS011;45992;45.920;20.074;2022-07-29T08:21:42;8.40;;;4.68;;
58647;SDS011;45992;45.920;20.074;2022-07-29T08:24:08;6.97;;;4.38;;
58647;SDS011;45992;45.920;20.074;2022-07-29T08:26:53;8.32;;;5.07;;
58647;SDS011;45992;45.920;20.074;2022-07-29T08:29:19;11.75;;;5.05;;
58647;SDS011;45992;45.920;20.074;2022-07-29T08:31:44;7.32;;;4.38;;
58647;SDS011;45992;45.920;20.074;2022-07-29T08:34:11;12.00;;;5.13;;
58647;SDS011;45992;45.920;20.074;2022-07-29T08:36:37;7.90;;;4.75;;
58647;SDS011;45992;45.920;20.074;2022-07-29T08:39:03;7.15;;;5.13;;
58647;SDS011;45992;45.920;20.074;2022-07-29T08:41:29;8.48;;;4.65;;
58647;SDS011;45992;45.920;20.074;2022-07-29T08:43:56;8.15;;;5.00;;
58647;SDS011;45992;45.920;20.074;2022-07-29T08:46:22;7.78;;;4.85;;
58647;SDS011;45992;45.920;20.074;2022-07-29T08:48:48;6.78;;;4.47;;
58647;SDS011;45992;45.920;20.074;2022-07-29T08:51:17;6.95;;;4.80;;
58647;SDS011;45992;45.920;20.074;2022-07-29T08:53:44;8.43;;;5.28;;
58647;SDS011;45992;45.920;20.074;2022-07-29T08:56:16;10.15;;;5.72;;
58647;SDS011;45992;45.920;20.074;2022-07-29T08:58:43;7.57;;;4.70;;
58647;SDS011;45992;45.920;20.074;2022-07-29T09:01:10;9.95;;;5.30;;
58647;SDS011;45992;45.920;20.074;2022-07-29T09:03:36;8.10;;;4.75;;
58647;SDS011;45992;45.920;20.074;2022-07-29T09:06:03;8.90;;;4.68;;
58647;SDS011;45992;45.920;20.074;2022-07-29T09:08:30;9.07;;;4.85;;
58647;SDS011;45992;45.920;20.074;2022-07-29T09:10:56;7.50;;;4.93;;
58647;SDS011;45992;45.920;20.074;2022-07-29T09:13:23;7.70;;;4.60;;
58647;SDS011;45992;45.920;20.074;2022-07-29T09:15:49;6.78;;;4.78;;
58647;SDS011;45992;45.920;20.074;2022-07-29T09:21:01;9.20;;;4.65;;
58647;SDS011;45992;45.920;20.074;2022-07-29T09:23:59;7.00;;;4.95;;
58647;SDS011;45992;45.920;20.074;2022-07-29T09:26:32;6.72;;;4.30;;
58647;SDS011;45992;45.920;20.074;2022-07-29T09:28:58;6.50;;;4.00;;
58647;SDS011;45992;45.920;20.074;2022-07-29T09:31:43;6.70;;;4.53;;
58647;SDS011;45992;45.920;20.074;2022-07-29T09:34:10;7.32;;;4.93;;
58647;SDS011;45992;45.920;20.074;2022-07-29T09:39:06;8.00;;;4.50;;
58647;SDS011;45992;45.920;20.074;2022-07-29T09:41:51;8.02;;;5.35;;
58647;SDS011;45992;45.920;20.074;2022-07-29T09:44:18;6.70;;;4.68;;
58647;SDS011;45992;45.920;20.074;2022-07-29T09:46:54;7.10;;;4.78;;
58647;SDS011;45992;45.920;20.074;2022-07-29T09:49:21;8.02;;;5.18;;
58647;SDS011;45992;45.920;20.074;2022-07-29T09:51:47;9.40;;;5.22;;
58647;SDS011;45992;45.920;20.074;2022-07-29T09:54:24;7.30;;;4.78;;
58647;SDS011;45992;45.920;20.074;2022-07-29T09:56:51;6.65;;;5.00;;
58647;SDS011;45992;45.920;20.074;2022-07-29T09:59:17;13.98;;;5.55;;
58647;SDS011;45992;45.920;20.074;2022-07-29T10:01:45;8.52;;;5.18;;
58647;SDS011;45992;45.920;20.074;2022-07-29T10:04:11;7.80;;;5.05;;
58647;SDS011;45992;45.920;20.074;2022-07-29T10:09:27;7.55;;;4.72;;
58647;SDS011;45992;45.920;20.074;2022-07-29T10:12:06;11.05;;;5.38;;
58647;SDS011;45992;45.920;20.074;2022-07-29T10:14:34;9.60;;;5.40;;
58647;SDS011;45992;45.920;20.074;2022-07-29T10:17:00;7.50;;;5.00;;
58647;SDS011;45992;45.920;20.074;2022-07-29T10:19:27;8.43;;;4.65;;
58647;SDS011;45992;45.920;20.074;2022-07-29T10:21:54;9.13;;;4.95;;
58647;SDS011;45992;45.920;20.074;2022-07-29T10:24:21;7.97;;;4.65;;
58647;SDS011;45992;45.920;20.074;2022-07-29T10:26:48;9.25;;;5.50;;
58647;SDS011;45992;45.920;20.074;2022-07-29T10:29:15;8.43;;;5.38;;
58647;SDS011;45992;45.920;20.074;2022-07-29T10:31:48;7.85;;;5.75;;
58647;SDS011;45992;45.920;20.074;2022-07-29T10:36:59;7.90;;;5.13;;
58647;SDS011;45992;45.920;20.074;2022-07-29T10:42:24;7.38;;;5.15;;
58647;SDS011;45992;45.920;20.074;2022-07-29T10:44:51;7.50;;;4.93;;
58647;SDS011;45992;45.920;20.074;2022-07-29T10:47:22;8.18;;;5.80;;
58647;SDS011;45992;45.920;20.074;2022-07-29T10:50:01;7.82;;;5.03;;
58647;SDS011;45992;45.920;20.074;2022-07-29T10:58:20;8.20;;;5.72;;
58647;SDS011;45992;45.920;20.074;2022-07-29T11:00:48;8.82;;;6.18;;
58647;SDS011;45992;45.920;20.074;2022-07-29T11:05:59;7.55;;;5.30;;
58647;SDS011;45992;45.920;20.074;2022-07-29T11:08:25;7.70;;;5.90;;
58647;SDS011;45992;45.920;20.074;2022-07-29T11:10:51;8.30;;;5.43;;
58647;SDS011;45992;45.920;20.074;2022-07-29T11:16:03;8.05;;;6.15;;
58647;SDS011;45992;45.920;20.074;2022-07-29T11:18:30;9.88;;;5.50;;
58647;SDS011;45992;45.920;20.074;2022-07-29T11:20:56;7.47;;;5.70;;
58647;SDS011;45992;45.920;20.074;2022-07-29T11:29:01;8.00;;;5.35;;
58647;SDS011;45992;45.920;20.074;2022-07-29T11:33:52;10.10;;;5.82;;
58647;SDS011;45992;45.920;20.074;2022-07-29T11:36:18;8.82;;;5.43;;
58647;SDS011;45992;45.920;20.074;2022-07-29T11:38:44;8.43;;;6.35;;
58647;SDS011;45992;45.920;20.074;2022-07-29T11:43:45;8.25;;;5.97;;
58647;SDS011;45992;45.920;20.074;2022-07-29T11:46:11;12.50;;;5.63;;
58647;SDS011;45992;45.920;20.074;2022-07-29T11:48:41;8.68;;;5.82;;
58647;SDS011;45992;45.920;20.074;2022-07-29T11:51:09;8.63;;;6.22;;
58647;SDS011;45992;45.920;20.074;2022-07-29T11:53:35;7.93;;;5.70;;
58647;SDS011;45992;45.920;20.074;2022-07-29T11:56:02;7.30;;;5.22;;
58647;SDS011;45992;45.920;20.074;2022-07-29T11:58:29;9.75;;;6.55;;
58647;SDS011;45992;45.920;20.074;2022-07-29T12:00:56;8.55;;;5.85;;
58647;SDS011;45992;45.920;20.074;2022-07-29T12:03:31;8.65;;;5.97;;
58647;SDS011;45992;45.920;20.074;2022-07-29T12:05:59;8.82;;;6.25;;
58647;SDS011;45992;45.920;20.074;2022-07-29T12:08:25;9.52;;;5.78;;
58647;SDS011;45992;45.920;20.074;2022-07-29T12:10:52;8.40;;;5.63;;
58647;SDS011;45992;45.920;20.074;2022-07-29T12:13:19;9.93;;;5.43;;
58647;SDS011;45992;45.920;20.074;2022-07-29T12:15:55;8.30;;;6.20;;
58647;SDS011;45992;45.920;20.074;2022-07-29T12:18:22;9.25;;;5.85;;
58647;SDS011;45992;45.920;20.074;2022-07-29T12:20:48;7.55;;;5.60;;
58647;SDS011;45992;45.920;20.074;2022-07-29T12:23:14;9.15;;;6.80;;
58647;SDS011;45992;45.920;20.074;2022-07-29T12:25:42;11.82;;;5.97;;
58647;SDS011;45992;45.920;20.074;2022-07-29T12:28:12;8.68;;;5.55;;
58647;SDS011;45992;45.920;20.074;2022-07-29T12:33:17;11.00;;;6.18;;
58647;SDS011;45992;45.920;20.074;2022-07-29T12:35:44;8.35;;;6.38;;
58647;SDS011;45992;45.920;20.074;2022-07-29T12:38:11;7.88;;;5.57;;
58647;SDS011;45992;45.920;20.074;2022-07-29T12:40:37;9.32;;;5.80;;
58647;SDS011;45992;45.920;20.074;2022-07-29T12:43:07;8.30;;;6.00;;
58647;SDS011;45992;45.920;20.074;2022-07-29T12:45:34;13.75;;;5.97;;
58647;SDS011;45992;45.920;20.074;2022-07-29T12:48:00;7.43;;;5.93;;
58647;SDS011;45992;45.920;20.074;2022-07-29T12:50:27;9.23;;;6.38;;
58647;SDS011;45992;45.920;20.074;2022-07-29T12:52:53;9.73;;;6.53;;
58647;SDS011;45992;45.920;20.074;2022-07-29T12:58:03;9.77;;;5.95;;
58647;SDS011;45992;45.920;20.074;2022-07-29T13:00:29;9.40;;;5.70;;
58647;SDS011;45992;45.920;20.074;2022-07-29T13:02:56;8.70;;;6.47;;
58647;SDS011;45992;45.920;20.074;2022-07-29T13:05:23;11.20;;;6.03;;
58647;SDS011;45992;45.920;20.074;2022-07-29T13:07:49;9.05;;;6.68;;
58647;SDS011;45992;45.920;20.074;2022-07-29T13:10:17;8.88;;;6.90;;
58647;SDS011;45992;45.920;20.074;2022-07-29T13:15:28;8.50;;;6.28;;
58647;SDS011;45992;45.920;20.074;2022-07-29T13:17:54;13.93;;;6.57;;
58647;SDS011;45992;45.920;20.074;2022-07-29T13:20:23;8.77;;;5.97;;
58647;SDS011;45992;45.920;20.074;2022-07-29T13:22:50;9.80;;;6.15;;
58647;SDS011;45992;45.920;20.074;2022-07-29T13:25:23;9.60;;;6.25;;
58647;SDS011;45992;45.920;20.074;2022-07-29T13:27:49;11.57;;;6.57;;
58647;SDS011;45992;45.920;20.074;2022-07-29T13:30:15;10.48;;;6.93;;
58647;SDS011;45992;45.920;20.074;2022-07-29T13:32:41;9.35;;;6.88;;
58647;SDS011;45992;45.920;20.074;2022-07-29T13:35:08;9.23;;;6.60;;
58647;SDS011;45992;45.920;20.074;2022-07-29T13:37:35;10.70;;;6.55;;
58647;SDS011;45992;45.920;20.074;2022-07-29T13:40:03;9.93;;;6.90;;
58647;SDS011;45992;45.920;20.074;2022-07-29T13:42:30;10.10;;;6.43;;
58647;SDS011;45992;45.920;20.074;2022-07-29T13:44:57;9.75;;;6.30;;
58647;SDS011;45992;45.920;20.074;2022-07-29T13:47:23;10.20;;;6.75;;
58647;SDS011;45992;45.920;20.074;2022-07-29T13:49:49;9.73;;;6.40;;
58647;SDS011;45992;45.920;20.074;2022-07-29T13:52:15;8.75;;;6.68;;
58647;SDS011;45992;45.920;20.074;2022-07-29T13:54:42;9.30;;;6.22;;
58647;SDS011;45992;45.920;20.074;2022-07-29T13:57:08;8.13;;;6.28;;
58647;SDS011;45992;45.920;20.074;2022-07-29T13:59:35;8.48;;;6.32;;
58647;SDS011;45992;45.920;20.074;2022-07-29T14:02:02;11.90;;;6.97;;
58647;SDS011;45992;45.920;20.074;2022-07-29T14:04:28;9.57;;;6.50;;
58647;SDS011;45992;45.920;20.074;2022-07-29T14:06:54;11.90;;;7.13;;
58647;SDS011;45992;45.920;20.074;2022-07-29T14:09:20;10.20;;;7.50;;
58647;SDS011;45992;45.920;20.074;2022-07-29T14:11:46;9.07;;;6.60;;
58647;SDS011;45992;45.920;20.074;2022-07-29T14:14:14;9.68;;;6.70;;
58647;SDS011;45992;45.920;20.074;2022-07-29T14:16:40;9.82;;;6.90;;
58647;SDS011;45992;45.920;20.074;2022-07-29T14:19:06;9.88;;;7.05;;
58647;SDS011;45992;45.920;20.074;2022-07-29T14:21:32;11.23;;;6.38;;
58647;SDS011;45992;45.920;20.074;2022-07-29T14:23:59;8.77;;;6.88;;
58647;SDS011;45992;45.920;20.074;2022-07-29T14:26:25;11.20;;;7.70;;
58647;SDS011;45992;45.920;20.074;2022-07-29T14:28:52;8.40;;;6.55;;
58647;SDS011;45992;45.920;20.074;2022-07-29T14:31:18;10.30;;;7.28;;
58647;SDS011;45992;45.920;20.074;2022-07-29T14:33:44;9.68;;;6.70;;
58647;SDS011;45992;45.920;20.074;2022-07-29T14:36:10;9.60;;;6.85;;
58647;SDS011;45992;45.920;20.074;2022-07-29T14:38:36;9.35;;;6.68;;
58647;SDS011;45992;45.920;20.074;2022-07-29T14:41:03;10.90;;;7.47;;
58647;SDS011;45992;45.920;20.074;2022-07-29T14:43:29;12.93;;;7.03;;
58647;SDS011;45992;45.920;20.074;2022-07-29T14:45:55;10.35;;;7.13;;
58647;SDS011;45992;45.920;20.074;2022-07-29T14:48:21;9.57;;;6.85;;
58647;SDS011;45992;45.920;20.074;2022-07-29T14:50:47;10.00;;;7.22;;
58647;SDS011;45992;45.920;20.074;2022-07-29T14:53:13;9.23;;;7.88;;
58647;SDS011;45992;45.920;20.074;2022-07-29T14:55:40;11.15;;;7.45;;
58647;SDS011;45992;45.920;20.074;2022-07-29T14:58:06;13.75;;;7.45;;
58647;SDS011;45992;45.920;20.074;2022-07-29T15:00:32;11.18;;;7.50;;
58647;SDS011;45992;45.920;20.074;2022-07-29T15:02:59;9.63;;;7.60;;
58647;SDS011;45992;45.920;20.074;2022-07-29T15:05:25;11.05;;;8.10;;
58647;SDS011;45992;45.920;20.074;2022-07-29T15:07:52;12.05;;;7.75;;
58647;SDS011;45992;45.920;20.074;2022-07-29T15:10:18;13.65;;;8.23;;
58647;SDS011;45992;45.920;20.074;2022-07-29T15:12:44;11.90;;;8.35;;
58647;SDS011;45992;45.920;20.074;2022-07-29T15:15:10;10.93;;;8.40;;
58647;SDS011;45992;45.920;20.074;2022-07-29T15:17:36;14.45;;;8.75;;
58647;SDS011;45992;45.920;20.074;2022-07-29T15:20:02;11.10;;;8.20;;
58647;SDS011;45992;45.920;20.074;2022-07-29T15:22:28;10.90;;;7.88;;
58647;SDS011;45992;45.920;20.074;2022-07-29T15:24:54;9.90;;;7.70;;
58647;SDS011;45992;45.920;20.074;2022-07-29T15:27:20;9.18;;;7.78;;
58647;SDS011;45992;45.920;20.074;2022-07-29T15:29:46;8.88;;;7.43;;
58647;SDS011;45992;45.920;20.074;2022-07-29T15:32:13;9.98;;;8.32;;
58647;SDS011;45992;45.920;20.074;2022-07-29T15:34:39;11.30;;;7.47;;
58647;SDS011;45992;45.920;20.074;2022-07-29T15:37:05;8.95;;;7.40;;
58647;SDS011;45992;45.920;20.074;2022-07-29T15:39:31;10.27;;;7.97;;
58647;SDS011;45992;45.920;20.074;2022-07-29T15:41:57;11.63;;;8.30;;
58647;SDS011;45992;45.920;20.074;2022-07-29T15:44:27;11.02;;;7.70;;
58647;SDS011;45992;45.920;20.074;2022-07-29T15:46:53;10.80;;;8.25;;